sensor_id;sensor_type;location;lat;lon;timestamp;P1;durP1;ratioP1;P2;durP2;ratioP2
31746;SDS011;18319;48.974;8.462;2023-04-03T00:01:38;1.83;;;1.37;;
31746;SDS011;18319;48.974;8.462;2023-04-03T00:04:05;1.40;;;1.30;;
31746;SDS011;18319;48.974;8.462;2023-04-03T00:06:32;0.90;;;0.90;;
31746;SDS011;18319;48.974;8.462;2023-04-03T00:09:00;1.83;;;1.47;;
31746;SDS011;18319;48.974;8.462;2023-04-03T00:11:26;1.33;;;1.20;;
31746;SDS011;18319;48.974;8.462;2023-04-03T00:13:54;2.50;;;1.20;;
31746;SDS011;18319;48.974;8.462;2023-04-03T00:16:21;1.27;;;1.20;;
31746;SDS011;18319;48.974;8.462;2023-04-03T00:18:48;2.20;;;1.23;;
31746;SDS011;18319;48.974;8.462;2023-04-03T00:21:15;1.30;;;1.20;;
31746;SDS011;18319;48.974;8.462;2023-04-03T00:23:41;1.67;;;1.37;;
31746;SDS011;18319;48.974;8.462;2023-04-03T00:26:08;1.33;;;1.20;;
31746;SDS011;18319;48.974;8.462;2023-04-03T00:28:35;0.80;;;0.80;;
31746;SDS011;18319;48.974;8.462;2023-04-03T00:31:03;2.03;;;1.23;;
31746;SDS011;18319;48.974;8.462;2023-04-03T00:33:30;1.43;;;1.33;;
31746;SDS011;18319;48.974;8.462;2023-04-03T00:35:57;1.57;;;1.37;;
31746;SDS011;18319;48.974;8.462;2023-04-03T00:38:23;1.40;;;1.30;;
31746;SDS011;18319;48.974;8.462;2023-04-03T00:40:50;2.23;;;1.20;;
31746;SDS011;18319;48.974;8.462;2023-04-03T00:43:18;1.20;;;1.10;;
31746;SDS011;18319;48.974;8.462;2023-04-03T00:45:46;1.77;;;1.50;;
31746;SDS011;18319;48.974;8.462;2023-04-03T00:48:17;1.20;;;1.10;;
31746;SDS011;18319;48.974;8.462;2023-04-03T00:50:55;2.37;;;1.50;;
31746;SDS011;18319;48.974;8.462;2023-04-03T00:53:24;3.97;;;1.30;;
31746;SDS011;18319;48.974;8.462;2023-04-03T00:55:54;1.20;;;1.10;;
31746;SDS011;18319;48.974;8.462;2023-04-03T00:58:24;1.13;;;1.00;;
31746;SDS011;18319;48.974;8.462;2023-04-03T01:00:55;1.17;;;1.00;;
31746;SDS011;18319;48.974;8.462;2023-04-03T01:03:26;2.07;;;1.17;;
31746;SDS011;18319;48.974;8.462;2023-04-03T01:05:52;1.30;;;1.20;;
31746;SDS011;18319;48.974;8.462;2023-04-03T01:08:19;3.17;;;1.47;;
31746;SDS011;18319;48.974;8.462;2023-04-03T01:10:46;0.90;;;0.90;;
31746;SDS011;18319;48.974;8.462;2023-04-03T01:13:22;1.57;;;1.27;;
31746;SDS011;18319;48.974;8.462;2023-04-03T01:15:51;0.80;;;0.80;;
31746;SDS011;18319;48.974;8.462;2023-04-03T01:18:18;1.10;;;0.97;;
31746;SDS011;18319;48.974;8.462;2023-04-03T01:23:55;1.37;;;0.90;;
31746;SDS011;18319;48.974;8.462;2023-04-03T01:26:25;2.20;;;1.07;;
31746;SDS011;18319;48.974;8.462;2023-04-03T01:28:54;2.00;;;1.17;;
31746;SDS011;18319;48.974;8.462;2023-04-03T01:31:22;1.70;;;1.00;;
31746;SDS011;18319;48.974;8.462;2023-04-03T01:33:54;1.93;;;1.33;;
31746;SDS011;18319;48.974;8.462;2023-04-03T01:36:21;0.83;;;0.83;;
31746;SDS011;18319;48.974;8.462;2023-04-03T01:38:50;1.73;;;1.30;;
31746;SDS011;18319;48.974;8.462;2023-04-03T01:41:17;1.40;;;0.80;;
31746;SDS011;18319;48.974;8.462;2023-04-03T01:43:45;1.77;;;1.13;;
31746;SDS011;18319;48.974;8.462;2023-04-03T01:46:12;1.67;;;1.00;;
31746;SDS011;18319;48.974;8.462;2023-04-03T01:48:40;2.23;;;1.10;;
31746;SDS011;18319;48.974;8.462;2023-04-03T01:51:08;2.93;;;1.80;;
31746;SDS011;18319;48.974;8.462;2023-04-03T01:53:35;1.27;;;1.17;;
31746;SDS011;18319;48.974;8.462;2023-04-03T01:56:02;1.00;;;0.93;;
31746;SDS011;18319;48.974;8.462;2023-04-03T01:58:29;1.27;;;0.83;;
31746;SDS011;18319;48.974;8.462;2023-04-03T02:00:56;1.00;;;1.00;;
31746;SDS011;18319;48.974;8.462;2023-04-03T02:03:23;1.03;;;1.03;;
31746;SDS011;18319;48.974;8.462;2023-04-03T02:05:50;0.93;;;0.90;;
31746;SDS011;18319;48.974;8.462;2023-04-03T02:08:18;1.17;;;1.03;;
31746;SDS011;18319;48.974;8.462;2023-04-03T02:10:46;1.10;;;1.00;;
31746;SDS011;18319;48.974;8.462;2023-04-03T02:13:13;1.60;;;0.97;;
31746;SDS011;18319;48.974;8.462;2023-04-03T02:15:40;1.13;;;1.03;;
31746;SDS011;18319;48.974;8.462;2023-04-03T02:18:07;1.10;;;1.00;;
31746;SDS011;18319;48.974;8.462;2023-04-03T02:20:34;1.53;;;1.00;;
31746;SDS011;18319;48.974;8.462;2023-04-03T02:23:01;1.20;;;1.20;;
31746;SDS011;18319;48.974;8.462;2023-04-03T02:25:29;3.83;;;1.23;;
31746;SDS011;18319;48.974;8.462;2023-04-03T02:27:56;1.10;;;1.00;;
31746;SDS011;18319;48.974;8.462;2023-04-03T02:30:23;2.40;;;1.20;;
31746;SDS011;18319;48.974;8.462;2023-04-03T02:32:50;3.13;;;1.50;;
31746;SDS011;18319;48.974;8.462;2023-04-03T02:35:17;1.00;;;1.00;;
31746;SDS011;18319;48.974;8.462;2023-04-03T02:37:44;1.50;;;1.40;;
31746;SDS011;18319;48.974;8.462;2023-04-03T02:40:10;0.90;;;0.90;;
31746;SDS011;18319;48.974;8.462;2023-04-03T02:42:39;1.43;;;1.23;;
31746;SDS011;18319;48.974;8.462;2023-04-03T02:45:06;1.70;;;1.10;;
31746;SDS011;18319;48.974;8.462;2023-04-03T02:47:33;1.60;;;1.50;;
31746;SDS011;18319;48.974;8.462;2023-04-03T02:50:00;1.07;;;1.07;;
31746;SDS011;18319;48.974;8.462;2023-04-03T02:52:27;1.47;;;1.20;;
31746;SDS011;18319;48.974;8.462;2023-04-03T02:54:53;2.07;;;1.10;;
31746;SDS011;18319;48.974;8.462;2023-04-03T02:57:20;1.70;;;1.40;;
31746;SDS011;18319;48.974;8.462;2023-04-03T02:59:48;1.40;;;1.30;;
31746;SDS011;18319;48.974;8.462;2023-04-03T03:02:15;1.10;;;1.10;;
31746;SDS011;18319;48.974;8.462;2023-04-03T03:04:42;0.93;;;0.93;;
31746;SDS011;18319;48.974;8.462;2023-04-03T03:07:09;1.60;;;1.07;;
31746;SDS011;18319;48.974;8.462;2023-04-03T03:09:35;1.33;;;1.03;;
31746;SDS011;18319;48.974;8.462;2023-04-03T03:12:02;1.60;;;1.27;;
31746;SDS011;18319;48.974;8.462;2023-04-03T03:14:30;1.83;;;1.70;;
31746;SDS011;18319;48.974;8.462;2023-04-03T03:16:58;2.47;;;1.10;;
31746;SDS011;18319;48.974;8.462;2023-04-03T03:19:25;1.40;;;1.07;;
31746;SDS011;18319;48.974;8.462;2023-04-03T03:21:51;2.67;;;1.20;;
31746;SDS011;18319;48.974;8.462;2023-04-03T03:24:18;1.33;;;1.10;;
31746;SDS011;18319;48.974;8.462;2023-04-03T03:26:45;1.13;;;0.90;;
31746;SDS011;18319;48.974;8.462;2023-04-03T03:29:11;1.17;;;1.10;;
31746;SDS011;18319;48.974;8.462;2023-04-03T03:31:38;1.53;;;1.43;;
31746;SDS011;18319;48.974;8.462;2023-04-03T03:34:06;1.70;;;1.17;;
31746;SDS011;18319;48.974;8.462;2023-04-03T03:36:33;1.90;;;1.17;;
31746;SDS011;18319;48.974;8.462;2023-04-03T03:39:00;1.60;;;1.33;;
31746;SDS011;18319;48.974;8.462;2023-04-03T03:41:27;1.27;;;1.20;;
31746;SDS011;18319;48.974;8.462;2023-04-03T03:43:54;2.30;;;1.30;;
31746;SDS011;18319;48.974;8.462;2023-04-03T03:46:20;0.93;;;0.93;;
31746;SDS011;18319;48.974;8.462;2023-04-03T03:48:47;2.63;;;1.20;;
31746;SDS011;18319;48.974;8.462;2023-04-03T03:51:15;1.33;;;1.00;;
31746;SDS011;18319;48.974;8.462;2023-04-03T03:53:42;2.13;;;1.27;;
31746;SDS011;18319;48.974;8.462;2023-04-03T03:56:09;3.07;;;1.47;;
31746;SDS011;18319;48.974;8.462;2023-04-03T03:58:36;1.50;;;0.93;;
31746;SDS011;18319;48.974;8.462;2023-04-03T04:01:03;2.27;;;1.73;;
31746;SDS011;18319;48.974;8.462;2023-04-03T04:03:31;2.00;;;1.20;;
31746;SDS011;18319;48.974;8.462;2023-04-03T04:05:58;1.73;;;1.43;;
31746;SDS011;18319;48.974;8.462;2023-04-03T04:08:26;1.27;;;1.17;;
31746;SDS011;18319;48.974;8.462;2023-04-03T04:10:53;2.37;;;1.20;;
31746;SDS011;18319;48.974;8.462;2023-04-03T04:13:20;2.23;;;1.60;;
31746;SDS011;18319;48.974;8.462;2023-04-03T04:15:47;1.33;;;1.23;;
31746;SDS011;18319;48.974;8.462;2023-04-03T04:18:13;2.37;;;1.20;;
31746;SDS011;18319;48.974;8.462;2023-04-03T04:20:40;1.60;;;1.30;;
31746;SDS011;18319;48.974;8.462;2023-04-03T04:23:07;2.30;;;1.50;;
31746;SDS011;18319;48.974;8.462;2023-04-03T04:25:35;3.20;;;1.40;;
31746;SDS011;18319;48.974;8.462;2023-04-03T04:28:02;1.03;;;0.97;;
31746;SDS011;18319;48.974;8.462;2023-04-03T04:30:29;1.40;;;1.30;;
31746;SDS011;18319;48.974;8.462;2023-04-03T04:32:55;1.03;;;0.93;;
31746;SDS011;18319;48.974;8.462;2023-04-03T04:35:22;1.87;;;1.03;;
31746;SDS011;18319;48.974;8.462;2023-04-03T04:37:49;1.97;;;1.40;;
31746;SDS011;18319;48.974;8.462;2023-04-03T04:40:16;3.03;;;1.43;;
31746;SDS011;18319;48.974;8.462;2023-04-03T04:42:44;2.27;;;1.57;;
31746;SDS011;18319;48.974;8.462;2023-04-03T04:45:11;1.97;;;1.20;;
31746;SDS011;18319;48.974;8.462;2023-04-03T04:47:37;1.17;;;1.07;;
31746;SDS011;18319;48.974;8.462;2023-04-03T04:50:07;2.33;;;1.43;;
31746;SDS011;18319;48.974;8.462;2023-04-03T04:52:37;1.40;;;1.30;;
31746;SDS011;18319;48.974;8.462;2023-04-03T04:55:05;1.37;;;1.20;;
31746;SDS011;18319;48.974;8.462;2023-04-03T04:57:32;1.30;;;1.07;;
31746;SDS011;18319;48.974;8.462;2023-04-03T05:00:01;1.40;;;1.30;;
31746;SDS011;18319;48.974;8.462;2023-04-03T05:02:28;1.13;;;1.10;;
31746;SDS011;18319;48.974;8.462;2023-04-03T05:04:55;1.83;;;1.40;;
31746;SDS011;18319;48.974;8.462;2023-04-03T05:07:22;2.23;;;1.40;;
31746;SDS011;18319;48.974;8.462;2023-04-03T05:09:49;3.03;;;1.30;;
31746;SDS011;18319;48.974;8.462;2023-04-03T05:12:16;1.10;;;1.00;;
31746;SDS011;18319;48.974;8.462;2023-04-03T05:14:43;1.30;;;1.20;;
31746;SDS011;18319;48.974;8.462;2023-04-03T05:17:11;1.47;;;1.37;;
31746;SDS011;18319;48.974;8.462;2023-04-03T05:19:38;2.30;;;1.17;;
31746;SDS011;18319;48.974;8.462;2023-04-03T05:22:04;2.60;;;1.60;;
31746;SDS011;18319;48.974;8.462;2023-04-03T05:24:31;1.70;;;1.60;;
31746;SDS011;18319;48.974;8.462;2023-04-03T05:26:58;1.73;;;1.63;;
31746;SDS011;18319;48.974;8.462;2023-04-03T05:29:25;1.70;;;1.60;;
31746;SDS011;18319;48.974;8.462;2023-04-03T05:31:51;2.30;;;1.67;;
31746;SDS011;18319;48.974;8.462;2023-04-03T05:34:19;3.53;;;1.57;;
31746;SDS011;18319;48.974;8.462;2023-04-03T05:36:46;1.50;;;1.40;;
31746;SDS011;18319;48.974;8.462;2023-04-03T05:39:13;1.97;;;1.47;;
31746;SDS011;18319;48.974;8.462;2023-04-03T05:41:40;1.67;;;1.30;;
31746;SDS011;18319;48.974;8.462;2023-04-03T05:44:07;1.10;;;1.10;;
31746;SDS011;18319;48.974;8.462;2023-04-03T05:46:33;2.87;;;1.77;;
31746;SDS011;18319;48.974;8.462;2023-04-03T05:49:00;2.07;;;1.57;;
31746;SDS011;18319;48.974;8.462;2023-04-03T05:51:30;1.10;;;1.10;;
31746;SDS011;18319;48.974;8.462;2023-04-03T05:54:00;1.43;;;1.33;;
31746;SDS011;18319;48.974;8.462;2023-04-03T05:56:33;1.97;;;1.87;;
31746;SDS011;18319;48.974;8.462;2023-04-03T05:58:59;1.97;;;1.60;;
31746;SDS011;18319;48.974;8.462;2023-04-03T06:01:26;2.30;;;1.57;;
31746;SDS011;18319;48.974;8.462;2023-04-03T06:03:53;2.23;;;1.30;;
31746;SDS011;18319;48.974;8.462;2023-04-03T06:06:20;1.50;;;1.40;;
31746;SDS011;18319;48.974;8.462;2023-04-03T06:08:49;1.73;;;1.63;;
31746;SDS011;18319;48.974;8.462;2023-04-03T06:11:16;3.20;;;1.70;;
31746;SDS011;18319;48.974;8.462;2023-04-03T06:13:43;1.33;;;1.23;;
31746;SDS011;18319;48.974;8.462;2023-04-03T06:16:10;1.83;;;1.67;;
31746;SDS011;18319;48.974;8.462;2023-04-03T06:18:40;1.50;;;1.40;;
31746;SDS011;18319;48.974;8.462;2023-04-03T06:21:07;1.43;;;1.30;;
31746;SDS011;18319;48.974;8.462;2023-04-03T06:23:34;2.33;;;1.33;;
31746;SDS011;18319;48.974;8.462;2023-04-03T06:26:02;2.10;;;1.60;;
31746;SDS011;18319;48.974;8.462;2023-04-03T06:28:29;1.80;;;1.70;;
31746;SDS011;18319;48.974;8.462;2023-04-03T06:30:55;1.27;;;1.17;;
31746;SDS011;18319;48.974;8.462;2023-04-03T06:33:22;1.73;;;1.63;;
31746;SDS011;18319;48.974;8.462;2023-04-03T06:35:49;1.77;;;1.67;;
31746;SDS011;18319;48.974;8.462;2023-04-03T06:38:21;1.73;;;1.63;;
31746;SDS011;18319;48.974;8.462;2023-04-03T06:40:48;2.90;;;1.67;;
31746;SDS011;18319;48.974;8.462;2023-04-03T06:43:17;1.63;;;1.30;;
31746;SDS011;18319;48.974;8.462;2023-04-03T06:45:45;1.67;;;1.57;;
31746;SDS011;18319;48.974;8.462;2023-04-03T06:48:12;2.07;;;1.93;;
31746;SDS011;18319;48.974;8.462;2023-04-03T06:50:39;2.40;;;1.60;;
31746;SDS011;18319;48.974;8.462;2023-04-03T06:53:06;2.60;;;1.63;;
31746;SDS011;18319;48.974;8.462;2023-04-03T06:55:33;1.43;;;1.37;;
31746;SDS011;18319;48.974;8.462;2023-04-03T06:58:00;1.47;;;1.37;;
31746;SDS011;18319;48.974;8.462;2023-04-03T07:00:28;2.57;;;1.90;;
31746;SDS011;18319;48.974;8.462;2023-04-03T07:02:55;2.97;;;1.60;;
31746;SDS011;18319;48.974;8.462;2023-04-03T07:05:22;2.67;;;2.10;;
31746;SDS011;18319;48.974;8.462;2023-04-03T07:07:49;3.37;;;1.70;;
31746;SDS011;18319;48.974;8.462;2023-04-03T07:10:16;1.73;;;1.63;;
31746;SDS011;18319;48.974;8.462;2023-04-03T07:12:43;2.43;;;1.47;;
31746;SDS011;18319;48.974;8.462;2023-04-03T07:15:10;2.87;;;2.00;;
31746;SDS011;18319;48.974;8.462;2023-04-03T07:17:40;2.87;;;2.07;;
31746;SDS011;18319;48.974;8.462;2023-04-03T07:20:08;2.47;;;2.00;;
31746;SDS011;18319;48.974;8.462;2023-04-03T07:22:35;2.17;;;1.97;;
31746;SDS011;18319;48.974;8.462;2023-04-03T07:25:02;2.80;;;1.70;;
31746;SDS011;18319;48.974;8.462;2023-04-03T07:27:32;2.10;;;1.90;;
31746;SDS011;18319;48.974;8.462;2023-04-03T07:29:59;2.03;;;1.93;;
31746;SDS011;18319;48.974;8.462;2023-04-03T07:32:26;1.90;;;1.80;;
31746;SDS011;18319;48.974;8.462;2023-04-03T07:34:54;2.27;;;1.90;;
31746;SDS011;18319;48.974;8.462;2023-04-03T07:37:21;2.20;;;2.10;;
31746;SDS011;18319;48.974;8.462;2023-04-03T07:39:47;2.60;;;1.80;;
31746;SDS011;18319;48.974;8.462;2023-04-03T07:42:14;1.70;;;1.60;;
31746;SDS011;18319;48.974;8.462;2023-04-03T07:44:41;2.93;;;1.60;;
31746;SDS011;18319;48.974;8.462;2023-04-03T07:47:08;3.97;;;2.00;;
31746;SDS011;18319;48.974;8.462;2023-04-03T07:49:35;1.90;;;1.80;;
31746;SDS011;18319;48.974;8.462;2023-04-03T07:52:06;2.27;;;1.70;;
31746;SDS011;18319;48.974;8.462;2023-04-03T07:54:34;3.47;;;1.77;;
31746;SDS011;18319;48.974;8.462;2023-04-03T07:57:01;1.70;;;1.40;;
31746;SDS011;18319;48.974;8.462;2023-04-03T07:59:27;2.00;;;1.70;;
31746;SDS011;18319;48.974;8.462;2023-04-03T08:01:55;2.63;;;1.73;;
31746;SDS011;18319;48.974;8.462;2023-04-03T08:04:21;1.73;;;1.63;;
31746;SDS011;18319;48.974;8.462;2023-04-03T08:06:48;2.13;;;1.93;;
31746;SDS011;18319;48.974;8.462;2023-04-03T08:09:17;3.80;;;2.10;;
31746;SDS011;18319;48.974;8.462;2023-04-03T08:11:44;2.40;;;2.07;;
31746;SDS011;18319;48.974;8.462;2023-04-03T08:14:11;2.30;;;2.10;;
31746;SDS011;18319;48.974;8.462;2023-04-03T08:16:41;1.90;;;1.73;;
31746;SDS011;18319;48.974;8.462;2023-04-03T08:19:08;2.33;;;2.13;;
31746;SDS011;18319;48.974;8.462;2023-04-03T08:21:35;1.93;;;1.70;;
31746;SDS011;18319;48.974;8.462;2023-04-03T08:24:02;4.77;;;1.90;;
31746;SDS011;18319;48.974;8.462;2023-04-03T08:26:32;2.00;;;1.80;;
31746;SDS011;18319;48.974;8.462;2023-04-03T08:28:59;1.90;;;1.70;;
31746;SDS011;18319;48.974;8.462;2023-04-03T08:31:25;2.70;;;1.80;;
31746;SDS011;18319;48.974;8.462;2023-04-03T08:33:52;2.73;;;1.83;;
31746;SDS011;18319;48.974;8.462;2023-04-03T08:36:20;2.00;;;1.90;;
31746;SDS011;18319;48.974;8.462;2023-04-03T08:38:49;3.83;;;1.77;;
31746;SDS011;18319;48.974;8.462;2023-04-03T08:41:20;2.00;;;1.80;;
31746;SDS011;18319;48.974;8.462;2023-04-03T08:44:02;1.80;;;1.60;;
31746;SDS011;18319;48.974;8.462;2023-04-03T08:46:40;1.80;;;1.70;;
31746;SDS011;18319;48.974;8.462;2023-04-03T08:49:21;1.97;;;1.70;;
31746;SDS011;18319;48.974;8.462;2023-04-03T08:51:52;1.80;;;1.70;;
31746;SDS011;18319;48.974;8.462;2023-04-03T08:54:23;2.50;;;1.83;;
31746;SDS011;18319;48.974;8.462;2023-04-03T08:56:53;3.00;;;2.00;;
31746;SDS011;18319;48.974;8.462;2023-04-03T08:59:25;2.20;;;1.90;;
31746;SDS011;18319;48.974;8.462;2023-04-03T09:01:56;2.90;;;1.70;;
31746;SDS011;18319;48.974;8.462;2023-04-03T09:04:25;4.93;;;1.60;;
31746;SDS011;18319;48.974;8.462;2023-04-03T09:06:54;2.53;;;1.40;;
31746;SDS011;18319;48.974;8.462;2023-04-03T09:09:29;2.27;;;1.73;;
31746;SDS011;18319;48.974;8.462;2023-04-03T09:12:00;2.77;;;2.13;;
31746;SDS011;18319;48.974;8.462;2023-04-03T09:14:36;3.87;;;1.40;;
31746;SDS011;18319;48.974;8.462;2023-04-03T09:17:09;1.73;;;1.50;;
31746;SDS011;18319;48.974;8.462;2023-04-03T09:19:41;2.03;;;1.67;;
31746;SDS011;18319;48.974;8.462;2023-04-03T09:22:17;1.30;;;1.20;;
31746;SDS011;18319;48.974;8.462;2023-04-03T09:24:50;2.85;;;1.77;;
31746;SDS011;18319;48.974;8.462;2023-04-03T09:27:23;3.03;;;1.75;;
31746;SDS011;18319;48.974;8.462;2023-04-03T09:29:53;1.73;;;1.63;;
31746;SDS011;18319;48.974;8.462;2023-04-03T09:32:22;2.28;;;1.30;;
31746;SDS011;18319;48.974;8.462;2023-04-03T09:34:52;2.13;;;1.30;;
31746;SDS011;18319;48.974;8.462;2023-04-03T09:40:12;2.05;;;1.23;;
31746;SDS011;18319;48.974;8.462;2023-04-03T09:43:00;1.63;;;1.53;;
31746;SDS011;18319;48.974;8.462;2023-04-03T09:45:31;2.33;;;1.35;;
31746;SDS011;18319;48.974;8.462;2023-04-03T09:48:06;1.40;;;1.10;;
31746;SDS011;18319;48.974;8.462;2023-04-03T09:50:34;4.30;;;1.40;;
31746;SDS011;18319;48.974;8.462;2023-04-03T09:53:06;1.55;;;1.45;;
31746;SDS011;18319;48.974;8.462;2023-04-03T09:55:41;3.03;;;1.50;;
31746;SDS011;18319;48.974;8.462;2023-04-03T09:58:22;2.10;;;1.08;;
31746;SDS011;18319;48.974;8.462;2023-04-03T10:00:57;1.60;;;1.50;;
31746;SDS011;18319;48.974;8.462;2023-04-03T10:03:27;2.33;;;1.20;;
31746;SDS011;18319;48.974;8.462;2023-04-03T10:05:56;1.77;;;1.10;;
31746;SDS011;18319;48.974;8.462;2023-04-03T10:08:25;1.10;;;1.02;;
31746;SDS011;18319;48.974;8.462;2023-04-03T10:11:08;1.10;;;1.10;;
31746;SDS011;18319;48.974;8.462;2023-04-03T10:13:51;1.65;;;0.98;;
31746;SDS011;18319;48.974;8.462;2023-04-03T10:16:22;1.63;;;1.03;;
31746;SDS011;18319;48.974;8.462;2023-04-03T10:18:55;1.77;;;1.10;;
31746;SDS011;18319;48.974;8.462;2023-04-03T10:21:32;2.10;;;1.20;;
31746;SDS011;18319;48.974;8.462;2023-04-03T10:24:07;2.47;;;0.97;;
31746;SDS011;18319;48.974;8.462;2023-04-03T10:26:39;2.67;;;1.40;;
31746;SDS011;18319;48.974;8.462;2023-04-03T10:29:15;1.93;;;1.27;;
31746;SDS011;18319;48.974;8.462;2023-04-03T10:31:56;0.90;;;0.90;;
31746;SDS011;18319;48.974;8.462;2023-04-03T10:34:30;1.37;;;1.00;;
31746;SDS011;18319;48.974;8.462;2023-04-03T10:37:01;1.20;;;1.10;;
31746;SDS011;18319;48.974;8.462;2023-04-03T10:39:34;1.60;;;0.90;;
31746;SDS011;18319;48.974;8.462;2023-04-03T10:42:07;4.60;;;1.00;;
31746;SDS011;18319;48.974;8.462;2023-04-03T10:44:41;0.77;;;0.77;;
31746;SDS011;18319;48.974;8.462;2023-04-03T10:47:18;2.70;;;1.30;;
31746;SDS011;18319;48.974;8.462;2023-04-03T10:49:50;1.55;;;1.00;;
31746;SDS011;18319;48.974;8.462;2023-04-03T10:52:27;3.53;;;1.00;;
31746;SDS011;18319;48.974;8.462;2023-04-03T10:55:02;1.58;;;1.00;;
31746;SDS011;18319;48.974;8.462;2023-04-03T10:57:37;1.20;;;1.00;;
31746;SDS011;18319;48.974;8.462;2023-04-03T11:00:06;3.50;;;0.95;;
31746;SDS011;18319;48.974;8.462;2023-04-03T11:02:45;3.28;;;1.00;;
31746;SDS011;18319;48.974;8.462;2023-04-03T11:05:18;1.20;;;1.10;;
31746;SDS011;18319;48.974;8.462;2023-04-03T11:07:53;1.00;;;1.00;;
31746;SDS011;18319;48.974;8.462;2023-04-03T11:10:24;1.15;;;1.05;;
31746;SDS011;18319;48.974;8.462;2023-04-03T11:12:58;1.92;;;0.82;;
31746;SDS011;18319;48.974;8.462;2023-04-03T11:15:32;2.35;;;0.93;;
31746;SDS011;18319;48.974;8.462;2023-04-03T11:18:02;0.98;;;0.93;;
31746;SDS011;18319;48.974;8.462;2023-04-03T11:20:32;1.17;;;1.10;;
31746;SDS011;18319;48.974;8.462;2023-04-03T11:23:03;0.80;;;0.80;;
31746;SDS011;18319;48.974;8.462;2023-04-03T11:25:33;1.00;;;0.90;;
31746;SDS011;18319;48.974;8.462;2023-04-03T11:28:03;1.52;;;0.90;;
31746;SDS011;18319;48.974;8.462;2023-04-03T11:30:32;1.52;;;0.88;;
31746;SDS011;18319;48.974;8.462;2023-04-03T11:33:08;1.23;;;0.77;;
31746;SDS011;18319;48.974;8.462;2023-04-03T11:35:57;2.83;;;0.90;;
31746;SDS011;18319;48.974;8.462;2023-04-03T11:38:27;0.80;;;0.75;;
31746;SDS011;18319;48.974;8.462;2023-04-03T11:41:01;1.67;;;0.93;;
31746;SDS011;18319;48.974;8.462;2023-04-03T11:43:29;2.17;;;1.17;;
31746;SDS011;18319;48.974;8.462;2023-04-03T11:45:57;2.33;;;1.30;;
31746;SDS011;18319;48.974;8.462;2023-04-03T11:48:49;1.30;;;1.20;;
31746;SDS011;18319;48.974;8.462;2023-04-03T12:00:47;0.97;;;0.93;;
31746;SDS011;18319;48.974;8.462;2023-04-03T12:03:29;3.90;;;1.10;;
31746;SDS011;18319;48.974;8.462;2023-04-03T12:09:31;0.97;;;0.90;;
31746;SDS011;18319;48.974;8.462;2023-04-03T12:12:36;0.80;;;0.80;;
31746;SDS011;18319;48.974;8.462;2023-04-03T12:21:17;1.33;;;1.05;;
31746;SDS011;18319;48.974;8.462;2023-04-03T12:23:59;1.52;;;0.98;;
31746;SDS011;18319;48.974;8.462;2023-04-03T12:26:36;1.80;;;1.00;;
31746;SDS011;18319;48.974;8.462;2023-04-03T12:29:10;1.52;;;0.90;;
31746;SDS011;18319;48.974;8.462;2023-04-03T12:31:45;2.45;;;1.25;;
31746;SDS011;18319;48.974;8.462;2023-04-03T12:34:24;1.30;;;1.13;;
31746;SDS011;18319;48.974;8.462;2023-04-03T12:37:07;0.80;;;0.77;;
31746;SDS011;18319;48.974;8.462;2023-04-03T12:39:45;2.03;;;1.13;;
31746;SDS011;18319;48.974;8.462;2023-04-03T12:42:31;1.73;;;1.20;;
31746;SDS011;18319;48.974;8.462;2023-04-03T12:45:09;2.72;;;1.15;;
31746;SDS011;18319;48.974;8.462;2023-04-03T12:47:43;1.00;;;0.90;;
31746;SDS011;18319;48.974;8.462;2023-04-03T12:50:18;0.75;;;0.70;;
31746;SDS011;18319;48.974;8.462;2023-04-03T12:52:51;0.70;;;0.70;;
31746;SDS011;18319;48.974;8.462;2023-04-03T12:55:22;1.13;;;1.02;;
31746;SDS011;18319;48.974;8.462;2023-04-03T12:57:50;1.05;;;1.00;;
31746;SDS011;18319;48.974;8.462;2023-04-03T13:03:04;1.20;;;1.10;;
31746;SDS011;18319;48.974;8.462;2023-04-03T13:05:32;1.42;;;1.23;;
31746;SDS011;18319;48.974;8.462;2023-04-03T13:08:01;1.00;;;1.00;;
31746;SDS011;18319;48.974;8.462;2023-04-03T13:10:30;0.88;;;0.85;;
31746;SDS011;18319;48.974;8.462;2023-04-03T13:13:06;3.90;;;1.17;;
31746;SDS011;18319;48.974;8.462;2023-04-03T13:15:40;0.80;;;0.80;;
31746;SDS011;18319;48.974;8.462;2023-04-03T13:18:21;1.13;;;1.03;;
31746;SDS011;18319;48.974;8.462;2023-04-03T13:20:49;1.70;;;1.00;;
31746;SDS011;18319;48.974;8.462;2023-04-03T13:23:16;2.15;;;1.23;;
31746;SDS011;18319;48.974;8.462;2023-04-03T13:25:45;1.90;;;1.00;;
31746;SDS011;18319;48.974;8.462;2023-04-03T13:28:15;1.17;;;0.80;;
31746;SDS011;18319;48.974;8.462;2023-04-03T13:30:54;1.30;;;0.90;;
31746;SDS011;18319;48.974;8.462;2023-04-03T13:33:28;2.05;;;1.35;;
31746;SDS011;18319;48.974;8.462;2023-04-03T13:35:58;2.27;;;1.00;;
31746;SDS011;18319;48.974;8.462;2023-04-03T13:38:29;3.38;;;0.90;;
31746;SDS011;18319;48.974;8.462;2023-04-03T13:40:59;1.17;;;0.93;;
31746;SDS011;18319;48.974;8.462;2023-04-03T13:43:30;1.05;;;0.95;;
31746;SDS011;18319;48.974;8.462;2023-04-03T13:45:59;2.83;;;1.20;;
31746;SDS011;18319;48.974;8.462;2023-04-03T13:48:34;1.85;;;0.95;;
31746;SDS011;18319;48.974;8.462;2023-04-03T13:51:12;1.33;;;0.80;;
31746;SDS011;18319;48.974;8.462;2023-04-03T13:53:45;1.63;;;1.17;;
31746;SDS011;18319;48.974;8.462;2023-04-03T13:56:18;1.30;;;1.20;;
31746;SDS011;18319;48.974;8.462;2023-04-03T13:58:59;1.67;;;1.00;;
31746;SDS011;18319;48.974;8.462;2023-04-03T14:01:38;1.92;;;1.10;;
31746;SDS011;18319;48.974;8.462;2023-04-03T14:04:12;0.80;;;0.80;;
31746;SDS011;18319;48.974;8.462;2023-04-03T14:06:42;1.00;;;0.90;;
31746;SDS011;18319;48.974;8.462;2023-04-03T14:09:09;1.43;;;0.93;;
31746;SDS011;18319;48.974;8.462;2023-04-03T14:11:36;2.63;;;1.30;;
31746;SDS011;18319;48.974;8.462;2023-04-03T14:14:05;1.07;;;0.93;;
31746;SDS011;18319;48.974;8.462;2023-04-03T14:16:40;2.08;;;1.02;;
31746;SDS011;18319;48.974;8.462;2023-04-03T14:19:11;2.17;;;1.30;;
31746;SDS011;18319;48.974;8.462;2023-04-03T14:21:44;2.87;;;1.43;;
31746;SDS011;18319;48.974;8.462;2023-04-03T14:24:12;2.53;;;1.33;;
31746;SDS011;18319;48.974;8.462;2023-04-03T14:26:38;1.58;;;1.45;;
31746;SDS011;18319;48.974;8.462;2023-04-03T14:29:09;1.23;;;1.13;;
31746;SDS011;18319;48.974;8.462;2023-04-03T14:31:37;1.92;;;0.90;;
31746;SDS011;18319;48.974;8.462;2023-04-03T14:34:04;1.13;;;0.82;;
31746;SDS011;18319;48.974;8.462;2023-04-03T14:36:31;1.10;;;1.00;;
31746;SDS011;18319;48.974;8.462;2023-04-03T14:39:02;1.23;;;1.10;;
31746;SDS011;18319;48.974;8.462;2023-04-03T14:41:30;2.67;;;1.10;;
31746;SDS011;18319;48.974;8.462;2023-04-03T14:43:57;7.88;;;1.52;;
31746;SDS011;18319;48.974;8.462;2023-04-03T14:46:26;1.52;;;1.13;;
31746;SDS011;18319;48.974;8.462;2023-04-03T14:48:55;4.03;;;1.55;;
31746;SDS011;18319;48.974;8.462;2023-04-03T14:51:22;1.60;;;1.00;;
31746;SDS011;18319;48.974;8.462;2023-04-03T14:53:49;1.42;;;0.93;;
31746;SDS011;18319;48.974;8.462;2023-04-03T14:56:18;2.63;;;1.00;;
31746;SDS011;18319;48.974;8.462;2023-04-03T14:58:48;2.30;;;1.13;;
31746;SDS011;18319;48.974;8.462;2023-04-03T15:01:15;1.08;;;0.95;;
31746;SDS011;18319;48.974;8.462;2023-04-03T15:03:44;1.30;;;0.70;;
31746;SDS011;18319;48.974;8.462;2023-04-03T15:06:11;1.48;;;1.13;;
31746;SDS011;18319;48.974;8.462;2023-04-03T15:08:39;1.20;;;1.08;;
31746;SDS011;18319;48.974;8.462;2023-04-03T15:11:07;1.75;;;1.00;;
31746;SDS011;18319;48.974;8.462;2023-04-03T15:13:35;1.08;;;1.00;;
31746;SDS011;18319;48.974;8.462;2023-04-03T15:16:02;1.98;;;0.90;;
31746;SDS011;18319;48.974;8.462;2023-04-03T15:18:31;1.30;;;1.20;;
31746;SDS011;18319;48.974;8.462;2023-04-03T15:21:04;3.05;;;1.40;;
31746;SDS011;18319;48.974;8.462;2023-04-03T15:23:31;1.50;;;0.93;;
31746;SDS011;18319;48.974;8.462;2023-04-03T15:25:58;3.17;;;1.02;;
31746;SDS011;18319;48.974;8.462;2023-04-03T15:28:26;2.70;;;0.90;;
31746;SDS011;18319;48.974;8.462;2023-04-03T15:30:56;3.30;;;1.40;;